createdAt,value
2023-01-31T00:01:52.169Z,90.14
2023-01-31T00:04:22.317Z,89.98
2023-01-31T00:06:54.035Z,90.14
2023-01-31T00:09:25.932Z,90.25
2023-01-31T00:11:57.566Z,90.16
2023-01-31T00:14:27.706Z,90.18
2023-01-31T00:16:59.435Z,90.20
2023-01-31T00:19:36.272Z,89.96
2023-01-31T00:22:07.925Z,90.09
2023-01-31T00:24:38.443Z,90.16
2023-01-31T00:27:10.633Z,90.27
2023-01-31T00:29:40.797Z,90.49
2023-01-31T00:32:13.352Z,90.49
2023-01-31T00:34:45.051Z,90.48
2023-01-31T00:37:17.607Z,90.53
2023-01-31T00:39:50.317Z,90.50
2023-01-31T00:42:22.307Z,90.39
2023-01-31T00:44:52.445Z,90.56
2023-01-31T00:47:24.071Z,90.66
2023-01-31T00:49:54.268Z,90.60
2023-01-31T00:52:26.250Z,90.84
2023-01-31T00:54:56.426Z,90.70
2023-01-31T00:57:28.094Z,91.03
2023-01-31T00:59:58.216Z,90.84
2023-01-31T01:02:29.899Z,91.11
2023-01-31T01:05:01.668Z,91.15
2023-01-31T01:07:33.022Z,91.28
2023-01-31T01:10:05.352Z,91.20
2023-01-31T01:12:37.004Z,91.36
2023-01-31T01:15:08.069Z,91.19
2023-01-31T01:17:39.860Z,91.28
2023-01-31T01:20:11.599Z,91.36
2023-01-31T01:22:43.697Z,91.38
2023-01-31T01:25:15.353Z,91.73
2023-01-31T01:27:45.526Z,91.51
2023-01-31T01:30:17.921Z,91.71
2023-01-31T01:32:49.686Z,91.69
2023-01-31T01:35:21.646Z,91.65
2023-01-31T01:37:53.488Z,91.55
2023-01-31T01:40:23.714Z,91.50
2023-01-31T01:42:55.338Z,91.66
2023-01-31T01:45:25.930Z,91.57
2023-01-31T01:48:00.898Z,91.60
2023-01-31T01:50:35.270Z,91.45
2023-01-31T01:53:11.963Z,91.65
2023-01-31T01:55:47.026Z,91.56
2023-01-31T01:58:22.090Z,91.61
2023-01-31T02:00:54.641Z,91.58
2023-01-31T02:03:27.295Z,91.47
2023-01-31T02:06:02.742Z,91.36
2023-01-31T02:08:38.842Z,91.40
2023-01-31T02:11:18.723Z,91.41
2023-01-31T02:13:54.476Z,91.27
2023-01-31T02:16:26.140Z,91.16
2023-01-31T02:18:57.170Z,91.46
2023-01-31T02:22:06.724Z,91.50
2023-01-31T02:25:14.065Z,91.32
2023-01-31T02:28:08.860Z,91.31
2023-01-31T02:31:02.577Z,91.39
2023-01-31T02:33:43.010Z,91.15
2023-01-31T02:36:24.650Z,91.44
2023-01-31T02:39:12.216Z,90.99
2023-01-31T02:41:51.476Z,91.11
2023-01-31T02:44:46.835Z,90.85
2023-01-31T02:47:30.356Z,90.96
2023-01-31T02:50:07.947Z,90.47
2023-01-31T02:52:46.774Z,90.44
2023-01-31T02:55:40.908Z,90.08
2023-01-31T02:58:15.529Z,90.07
2023-01-31T03:00:48.995Z,90.15
2023-01-31T03:03:26.100Z,89.99
2023-01-31T03:06:35.689Z,89.88
2023-01-31T03:09:13.704Z,89.78
2023-01-31T03:11:54.082Z,89.93
2023-01-31T03:14:32.913Z,89.95
2023-01-31T03:17:30.890Z,89.99
2023-01-31T03:20:09.464Z,89.85
2023-01-31T03:22:45.490Z,89.85
2023-01-31T03:25:21.635Z,89.91
2023-01-31T03:27:58.488Z,90.00
2023-01-31T03:30:36.443Z,89.85
2023-01-31T03:33:13.928Z,90.05
2023-01-31T03:35:53.349Z,90.02
2023-01-31T03:38:32.701Z,90.05
2023-01-31T03:41:11.956Z,89.88
2023-01-31T03:43:51.906Z,89.90
2023-01-31T03:46:30.248Z,89.88
2023-01-31T03:49:08.787Z,89.85
2023-01-31T03:51:46.299Z,89.80
2023-01-31T03:54:25.012Z,89.96
2023-01-31T03:57:01.256Z,89.84
2023-01-31T03:59:38.661Z,89.90
2023-01-31T04:02:13.923Z,89.67
2023-01-31T04:04:49.827Z,89.61
2023-01-31T04:07:23.184Z,89.64
2023-01-31T04:09:55.009Z,89.70
2023-01-31T04:12:25.092Z,89.58
2023-01-31T04:14:56.757Z,90.00
2023-01-31T04:17:26.921Z,89.90
2023-01-31T04:19:58.526Z,90.11
2023-01-31T04:22:28.689Z,90.37
2023-01-31T04:25:00.378Z,90.23
2023-01-31T04:27:30.507Z,90.21
2023-01-31T04:30:02.386Z,90.25
2023-01-31T04:32:34.254Z,90.31
2023-01-31T04:35:06.614Z,90.26
2023-01-31T04:37:38.258Z,90.22
2023-01-31T04:40:10.062Z,90.19
2023-01-31T04:42:41.662Z,90.12
2023-01-31T04:45:12.403Z,90.13
2023-01-31T04:47:44.477Z,89.91
2023-01-31T04:50:16.715Z,89.81
2023-01-31T04:52:51.996Z,89.91
2023-01-31T04:55:23.597Z,89.60
2023-01-31T04:57:53.739Z,89.76
2023-01-31T05:00:25.528Z,89.86
2023-01-31T05:02:57.213Z,89.73
2023-01-31T05:05:29.213Z,89.81
2023-01-31T05:08:00.885Z,89.61
2023-01-31T05:10:31.581Z,89.71
2023-01-31T05:13:03.410Z,89.67
2023-01-31T05:15:35.058Z,89.63
2023-01-31T05:18:05.614Z,89.86
2023-01-31T05:20:40.839Z,89.83
2023-01-31T05:23:13.466Z,89.82
2023-01-31T05:25:45.966Z,89.70
2023-01-31T05:28:18.610Z,89.69
2023-01-31T05:30:50.661Z,89.59
2023-01-31T05:33:22.456Z,89.65
2023-01-31T05:35:52.621Z,89.74
2023-01-31T05:38:24.395Z,89.59
2023-01-31T05:40:56.084Z,89.45
2023-01-31T05:43:26.227Z,89.58
2023-01-31T05:45:57.945Z,89.48
2023-01-31T05:48:29.841Z,89.36
2023-01-31T05:51:00.011Z,89.22
2023-01-31T05:53:32.387Z,89.32
2023-01-31T05:56:04.074Z,89.29
2023-01-31T05:58:34.220Z,89.06
2023-01-31T06:01:06.176Z,89.11
2023-01-31T06:03:37.823Z,89.28
2023-01-31T06:06:09.962Z,89.05
2023-01-31T06:08:42.036Z,88.92
2023-01-31T06:11:14.762Z,88.90
2023-01-31T06:13:46.520Z,88.68
2023-01-31T06:16:18.255Z,88.90
2023-01-31T06:18:50.012Z,88.96
2023-01-31T06:21:20.141Z,88.94
2023-01-31T06:23:51.798Z,89.05
2023-01-31T06:26:22.029Z,88.90
2023-01-31T06:28:53.779Z,89.21
2023-01-31T06:31:24.173Z,89.15
2023-01-31T06:33:56.517Z,89.23
2023-01-31T06:36:28.216Z,89.13
2023-01-31T06:38:58.357Z,89.00
2023-01-31T06:41:30.372Z,89.36
2023-01-31T06:44:02.324Z,89.19
2023-01-31T06:46:34.095Z,89.12
2023-01-31T06:49:05.948Z,89.11
2023-01-31T06:51:37.695Z,88.86
2023-01-31T06:54:07.821Z,88.83
2023-01-31T06:56:39.627Z,88.96
2023-01-31T06:59:09.778Z,88.94
2023-01-31T07:01:41.497Z,88.80
2023-01-31T07:04:11.628Z,88.81
2023-01-31T07:06:43.281Z,88.72
2023-01-31T07:09:13.529Z,88.65
2023-01-31T07:11:45.279Z,88.75
2023-01-31T07:14:15.605Z,88.52
2023-01-31T07:16:47.232Z,88.69
2023-01-31T07:19:17.356Z,88.60
2023-01-31T07:21:49.436Z,88.61
2023-01-31T07:24:21.130Z,88.35
2023-01-31T07:26:52.950Z,88.53
2023-01-31T07:29:24.617Z,88.48
2023-01-31T07:31:55.338Z,88.23
2023-01-31T07:34:27.178Z,87.98
2023-01-31T07:36:58.904Z,88.01
2023-01-31T07:39:30.116Z,87.79
2023-01-31T07:42:01.916Z,88.03
2023-01-31T07:44:33.668Z,87.55
2023-01-31T07:47:03.788Z,87.36
2023-01-31T07:49:35.447Z,87.46
2023-01-31T07:52:07.929Z,87.43
2023-01-31T07:54:40.124Z,87.62
2023-01-31T07:57:10.237Z,87.41
2023-01-31T07:59:41.848Z,87.18
2023-01-31T08:02:30.780Z,87.06
2023-01-31T08:05:02.683Z,87.15
2023-01-31T08:07:34.454Z,86.90
2023-01-31T08:10:04.746Z,86.95
2023-01-31T08:12:36.425Z,86.73
2023-01-31T08:15:09.404Z,86.81
2023-01-31T08:17:41.064Z,86.85
2023-01-31T08:20:12.267Z,86.72
2023-01-31T08:22:43.951Z,86.87
2023-01-31T08:25:14.156Z,86.43
2023-01-31T08:27:45.795Z,86.90
2023-01-31T08:30:16.443Z,86.57
2023-01-31T08:32:48.115Z,86.37
2023-01-31T08:35:18.549Z,86.43
2023-01-31T08:37:50.426Z,86.26
2023-01-31T08:40:22.205Z,86.09
2023-01-31T08:43:01.731Z,86.14
2023-01-31T08:45:33.682Z,86.28
2023-01-31T08:48:05.833Z,86.29
2023-01-31T08:50:39.224Z,86.23
2023-01-31T08:53:12.045Z,85.93
2023-01-31T08:55:42.158Z,86.08
2023-01-31T08:58:13.825Z,86.20
2023-01-31T09:00:47.084Z,85.88
2023-01-31T09:03:19.456Z,85.73
2023-01-31T09:05:49.592Z,85.56
2023-01-31T09:08:22.575Z,85.59
2023-01-31T09:10:55.352Z,85.84
2023-01-31T09:13:27.873Z,85.85
2023-01-31T09:16:04.956Z,85.63
2023-01-31T09:18:37.737Z,85.78
2023-01-31T09:21:11.555Z,85.85
2023-01-31T09:23:44.577Z,85.66
2023-01-31T09:26:17.259Z,85.76
2023-01-31T09:28:50.906Z,85.87
2023-01-31T09:31:23.518Z,85.60
2023-01-31T09:33:55.727Z,85.36
2023-01-31T09:36:27.811Z,85.55
2023-01-31T09:38:59.844Z,85.49
2023-01-31T09:41:37.260Z,85.20
2023-01-31T09:44:15.783Z,85.42
2023-01-31T09:46:52.740Z,85.16
2023-01-31T09:49:28.446Z,85.15
2023-01-31T09:52:03.072Z,84.93
2023-01-31T09:54:40.110Z,84.84
2023-01-31T09:57:26.838Z,84.63
2023-01-31T10:00:09.543Z,84.40
2023-01-31T10:02:59.384Z,84.08
2023-01-31T10:05:38.759Z,83.71
2023-01-31T10:08:19.659Z,83.45
2023-01-31T10:10:56.379Z,82.89
2023-01-31T10:13:35.323Z,82.70
2023-01-31T10:16:16.166Z,83.01
2023-01-31T10:18:51.745Z,82.76
2023-01-31T10:21:27.193Z,82.33
2023-01-31T10:24:03.555Z,82.16
2023-01-31T10:26:39.152Z,82.10
2023-01-31T10:29:15.266Z,81.83
2023-01-31T10:31:52.366Z,81.83
2023-01-31T10:34:31.707Z,81.65
2023-01-31T10:37:07.926Z,81.62
2023-01-31T10:39:44.826Z,81.35
2023-01-31T10:42:21.694Z,81.50
2023-01-31T10:44:56.931Z,81.29
2023-01-31T10:47:37.520Z,80.98
2023-01-31T10:50:17.480Z,80.30
2023-01-31T10:53:04.477Z,80.09
2023-01-31T10:55:47.467Z,80.44
2023-01-31T10:58:22.426Z,80.29
2023-01-31T11:00:55.016Z,80.37
2023-01-31T11:03:27.048Z,80.72
2023-01-31T11:05:59.752Z,80.67
2023-01-31T11:08:41.592Z,80.25
2023-01-31T11:11:16.980Z,80.04
2023-01-31T11:14:00.568Z,80.08
2023-01-31T11:19:58.636Z,80.16
2023-01-31T11:22:33.716Z,79.80
2023-01-31T11:25:07.430Z,79.95
2023-01-31T11:27:43.507Z,79.98
2023-01-31T11:30:26.911Z,79.62
2023-01-31T11:32:58.952Z,79.60
2023-01-31T11:35:33.317Z,79.27
2023-01-31T11:38:20.699Z,79.41
2023-01-31T11:40:52.562Z,79.52
2023-01-31T11:43:31.844Z,79.53
2023-01-31T11:46:04.503Z,79.48
2023-01-31T11:48:43.554Z,79.60
2023-01-31T11:51:27.437Z,79.30
2023-01-31T11:53:59.211Z,78.93
2023-01-31T11:56:36.557Z,79.24
2023-01-31T11:59:13.912Z,79.00
2023-01-31T12:01:50.122Z,79.07
2023-01-31T12:04:26.993Z,78.96
2023-01-31T12:07:02.823Z,78.85
2023-01-31T12:09:45.680Z,78.81
2023-01-31T12:12:32.193Z,78.77
2023-01-31T12:15:06.725Z,78.48
2023-01-31T12:17:46.882Z,78.19
2023-01-31T12:20:29.026Z,77.82
2023-01-31T12:23:28.863Z,77.68
2023-01-31T12:26:12.058Z,77.82
2023-01-31T12:29:02.924Z,77.29
2023-01-31T12:31:49.219Z,76.73
2023-01-31T12:34:47.081Z,76.49
2023-01-31T12:37:40.743Z,76.61
2023-01-31T12:40:30.845Z,76.56
2023-01-31T12:43:04.903Z,76.40
2023-01-31T12:45:54.874Z,76.98
2023-01-31T12:48:42.136Z,76.71
2023-01-31T12:51:26.155Z,76.66
2023-01-31T12:54:14.820Z,76.75
2023-01-31T12:57:00.089Z,76.42
2023-01-31T12:59:48.703Z,76.28
2023-01-31T13:02:39.646Z,75.89
2023-01-31T13:05:25.809Z,75.62
2023-01-31T13:08:08.533Z,74.84
2023-01-31T13:10:46.294Z,74.51
2023-01-31T13:13:23.692Z,74.62
2023-01-31T13:16:02.159Z,75.03
2023-01-31T13:18:36.129Z,74.89
2023-01-31T13:21:11.771Z,74.42
2023-01-31T13:23:52.279Z,74.96
2023-01-31T13:26:29.324Z,74.92
2023-01-31T13:29:06.967Z,74.58
2023-01-31T13:31:45.111Z,74.40
2023-01-31T13:34:24.281Z,74.24
2023-01-31T13:37:01.129Z,74.55
2023-01-31T13:39:39.014Z,74.53
2023-01-31T13:42:15.130Z,74.27
2023-01-31T13:44:49.096Z,74.11
2023-01-31T13:47:26.493Z,74.13
2023-01-31T13:50:03.095Z,73.94
2023-01-31T13:52:41.140Z,74.09
2023-01-31T13:55:20.507Z,73.93
2023-01-31T13:58:00.177Z,74.08
2023-01-31T14:00:41.033Z,74.54
2023-01-31T14:03:15.369Z,74.74
2023-01-31T14:06:03.885Z,75.03
2023-01-31T14:08:57.326Z,75.22
2023-01-31T14:11:44.032Z,75.44
2023-01-31T14:14:39.178Z,75.33
2023-01-31T14:17:14.644Z,75.07
2023-01-31T14:20:04.347Z,75.02
2023-01-31T14:22:38.777Z,75.13
2023-01-31T14:25:15.811Z,75.52
2023-01-31T14:28:02.402Z,75.12
2023-01-31T14:30:40.457Z,74.94
2023-01-31T14:33:23.151Z,74.97
2023-01-31T14:36:16.616Z,75.09
2023-01-31T14:39:23.557Z,74.62
2023-01-31T14:42:13.338Z,74.82
2023-01-31T14:44:59.974Z,74.90
2023-01-31T14:47:47.389Z,75.15
2023-01-31T14:50:41.671Z,75.44
2023-01-31T14:53:35.857Z,75.84
2023-01-31T14:56:26.734Z,75.88
2023-01-31T14:58:58.924Z,76.30
2023-01-31T15:01:38.188Z,76.45
2023-01-31T15:04:22.806Z,76.86
2023-01-31T15:06:57.420Z,76.98
2023-01-31T15:09:40.477Z,77.48
2023-01-31T15:12:44.920Z,77.65
2023-01-31T15:15:27.271Z,77.82
2023-01-31T15:18:04.047Z,78.05
2023-01-31T15:20:43.300Z,78.00
2023-01-31T15:23:23.093Z,78.22
2023-01-31T15:25:56.991Z,78.42
2023-01-31T15:28:31.528Z,78.99
2023-01-31T15:31:06.379Z,79.21
2023-01-31T15:33:44.713Z,79.60
2023-01-31T15:36:25.912Z,79.76
2023-01-31T15:39:01.914Z,79.95
2023-01-31T15:41:41.753Z,80.20
2023-01-31T15:44:20.355Z,80.45
2023-01-31T15:46:54.022Z,80.75
2023-01-31T15:49:39.567Z,81.09
2023-01-31T15:52:17.549Z,81.16
2023-01-31T15:54:57.915Z,81.48
2023-01-31T15:57:34.433Z,81.53
2023-01-31T16:00:08.662Z,81.80
2023-01-31T16:02:41.497Z,82.00
2023-01-31T16:05:21.189Z,82.26
2023-01-31T16:07:53.167Z,82.36
2023-01-31T16:10:26.352Z,82.65
2023-01-31T16:12:59.581Z,82.88
2023-01-31T16:15:33.142Z,82.92
2023-01-31T16:18:05.455Z,83.09
2023-01-31T16:20:44.373Z,83.45
2023-01-31T16:23:28.065Z,83.44
2023-01-31T16:26:06.935Z,83.43
2023-01-31T16:28:44.834Z,83.77
2023-01-31T16:31:18.598Z,83.99
2023-01-31T16:33:53.367Z,83.78
2023-01-31T16:36:27.601Z,84.31
2023-01-31T16:39:02.818Z,84.31
2023-01-31T16:41:48.121Z,84.37
2023-01-31T16:44:22.863Z,84.45
2023-01-31T16:46:55.183Z,84.61
2023-01-31T16:49:30.101Z,84.83
2023-01-31T16:52:16.867Z,84.93
2023-01-31T16:54:52.961Z,84.87
2023-01-31T16:57:38.311Z,84.90
2023-01-31T17:00:37.128Z,85.07
2023-01-31T17:03:19.278Z,85.29
2023-01-31T17:05:51.031Z,85.39
2023-01-31T17:08:25.456Z,85.47
2023-01-31T17:10:57.292Z,85.47
2023-01-31T17:13:29.134Z,85.34
2023-01-31T17:16:00.792Z,85.63
2023-01-31T17:18:33.199Z,85.57
2023-01-31T17:21:05.316Z,85.68
2023-01-31T17:23:37.947Z,85.78
2023-01-31T17:26:15.331Z,85.93
2023-01-31T17:29:01.569Z,86.10
2023-01-31T17:31:34.743Z,86.11
2023-01-31T17:34:12.722Z,86.17
2023-01-31T17:36:46.587Z,86.39
2023-01-31T17:39:18.864Z,86.34
2023-01-31T17:41:51.063Z,86.41
2023-01-31T17:44:22.829Z,86.52
2023-01-31T17:46:53.031Z,86.45
2023-01-31T17:49:24.769Z,87.01
2023-01-31T17:51:57.648Z,86.84
2023-01-31T17:54:29.512Z,86.63
2023-01-31T17:57:01.237Z,87.01
2023-01-31T17:59:45.361Z,86.92
2023-01-31T18:02:18.996Z,87.39
2023-01-31T18:04:49.119Z,87.23
2023-01-31T18:07:20.752Z,87.70
2023-01-31T18:09:51.097Z,87.49
2023-01-31T18:12:22.780Z,87.80
2023-01-31T18:14:53.795Z,87.48
2023-01-31T18:17:25.707Z,88.03
2023-01-31T18:19:57.566Z,87.78
2023-01-31T18:22:30.736Z,87.99
2023-01-31T18:25:02.389Z,88.03
2023-01-31T18:27:32.563Z,88.00
2023-01-31T18:30:05.525Z,88.31
2023-01-31T18:32:37.247Z,88.27
2023-01-31T18:35:09.720Z,88.46
2023-01-31T18:37:41.514Z,88.48
2023-01-31T18:40:15.980Z,88.78
2023-01-31T18:42:47.639Z,88.62
2023-01-31T18:45:17.933Z,88.73
2023-01-31T18:47:49.588Z,88.90
2023-01-31T18:50:19.789Z,88.78
2023-01-31T18:52:51.519Z,88.86
2023-01-31T18:55:21.998Z,89.08
2023-01-31T18:57:53.862Z,89.04
2023-01-31T19:00:26.471Z,89.00
2023-01-31T19:02:58.595Z,89.04
2023-01-31T19:05:30.531Z,88.89
2023-01-31T19:08:02.297Z,89.05
2023-01-31T19:10:35.233Z,89.15
2023-01-31T19:13:07.095Z,89.05
2023-01-31T19:15:38.968Z,89.06
2023-01-31T19:18:10.758Z,89.11
2023-01-31T19:20:42.425Z,89.11
2023-01-31T19:23:14.342Z,89.03
2023-01-31T19:25:48.279Z,89.22
2023-01-31T19:28:22.935Z,89.28
2023-01-31T19:30:55.285Z,89.18
2023-01-31T19:33:27.179Z,89.15
2023-01-31T19:35:59.036Z,89.21
2023-01-31T19:38:31.653Z,89.20
2023-01-31T19:41:09.167Z,89.22
2023-01-31T19:43:41.289Z,89.22
2023-01-31T19:46:13.612Z,89.43
2023-01-31T19:48:45.911Z,89.26
2023-01-31T19:51:19.470Z,89.33
2023-01-31T19:53:52.804Z,89.60
2023-01-31T19:56:25.225Z,89.71
2023-01-31T19:58:57.734Z,89.58
2023-01-31T20:01:30.878Z,89.66
2023-01-31T20:04:02.600Z,89.77
2023-01-31T20:06:34.430Z,89.79
2023-01-31T20:09:08.253Z,90.03
2023-01-31T20:11:40.181Z,90.00
2023-01-31T20:14:10.396Z,90.05
2023-01-31T20:16:42.382Z,90.19
2023-01-31T20:19:14.156Z,90.30
2023-01-31T20:21:46.110Z,90.34
2023-01-31T20:24:18.146Z,90.20
2023-01-31T20:26:50.115Z,90.19
2023-01-31T20:29:21.843Z,90.31
2023-01-31T20:31:52.301Z,90.34
2023-01-31T20:34:24.201Z,90.36
2023-01-31T20:36:55.965Z,90.53
2023-01-31T20:39:28.026Z,90.34
2023-01-31T20:41:59.915Z,90.32
2023-01-31T20:44:32.293Z,90.47
2023-01-31T20:47:04.249Z,90.50
2023-01-31T20:49:35.908Z,90.66
2023-01-31T20:52:06.333Z,90.58
2023-01-31T20:54:38.088Z,90.86
2023-01-31T20:57:08.201Z,90.80
2023-01-31T20:59:39.872Z,90.89
2023-01-31T21:02:12.677Z,91.07
2023-01-31T21:04:44.413Z,90.95
2023-01-31T21:07:14.524Z,91.05
2023-01-31T21:09:46.155Z,91.03
2023-01-31T21:12:16.385Z,91.19
2023-01-31T21:14:50.035Z,91.27
2023-01-31T21:17:24.747Z,91.32
2023-01-31T21:20:02.532Z,91.40
2023-01-31T21:22:34.262Z,91.28
2023-01-31T21:25:06.771Z,91.59
2023-01-31T21:27:38.489Z,91.39
2023-01-31T21:30:10.675Z,91.48
2023-01-31T21:32:42.288Z,91.77
2023-01-31T21:35:13.564Z,91.51
2023-01-31T21:37:49.993Z,91.74
2023-01-31T21:40:22.152Z,91.64
2023-01-31T21:42:54.866Z,91.53
2023-01-31T21:45:40.310Z,91.80
2023-01-31T21:48:31.980Z,91.57
2023-01-31T21:51:06.813Z,91.53
2023-01-31T21:53:39.213Z,91.43
2023-01-31T21:56:12.676Z,91.74
2023-01-31T21:58:45.439Z,91.49
2023-01-31T22:01:19.252Z,91.67
2023-01-31T22:03:52.992Z,91.41
2023-01-31T22:06:29.622Z,91.57
2023-01-31T22:09:03.883Z,91.51
2023-01-31T22:11:35.954Z,91.27
2023-01-31T22:14:09.467Z,91.49
2023-01-31T22:16:41.967Z,91.42
2023-01-31T22:19:14.572Z,91.70
2023-01-31T22:21:46.248Z,91.74
2023-01-31T22:24:16.383Z,91.62
2023-01-31T22:26:48.107Z,91.65
2023-01-31T22:29:19.877Z,91.76
2023-01-31T22:31:50.070Z,91.67
2023-01-31T22:34:21.887Z,92.00
2023-01-31T22:36:52.033Z,91.79
2023-01-31T22:39:23.728Z,92.10
2023-01-31T22:41:53.851Z,91.95
2023-01-31T22:44:25.564Z,92.10
2023-01-31T22:46:55.693Z,91.94
2023-01-31T22:49:27.374Z,92.15
2023-01-31T22:51:57.524Z,92.37
2023-01-31T22:54:29.165Z,92.23
2023-01-31T22:56:59.273Z,92.21
2023-01-31T22:59:30.904Z,92.33
2023-01-31T23:02:01.027Z,92.29
2023-01-31T23:04:32.705Z,92.42
2023-01-31T23:07:02.878Z,92.40
2023-01-31T23:09:34.598Z,92.41
2023-01-31T23:12:04.950Z,92.23
2023-01-31T23:14:36.555Z,92.37
2023-01-31T23:17:24.064Z,92.55
2023-01-31T23:19:55.715Z,92.39
2023-01-31T23:22:25.850Z,92.42
2023-01-31T23:24:57.532Z,92.38
2023-01-31T23:27:27.932Z,92.40
2023-01-31T23:29:59.614Z,92.57
2023-01-31T23:32:29.780Z,92.42
2023-01-31T23:35:01.450Z,92.43
2023-01-31T23:37:33.664Z,92.44
2023-01-31T23:40:07.018Z,92.67
2023-01-31T23:42:38.781Z,92.34
2023-01-31T23:45:14.309Z,92.40
2023-01-31T23:47:46.118Z,92.45
2023-01-31T23:50:19.497Z,92.33
2023-01-31T23:52:51.391Z,92.33
2023-01-31T23:55:23.123Z,92.33
2023-01-31T23:57:53.287Z,92.38
